Time;durP1;ratioP1;P1;durP2;ratioP2;P2;SDS_P1;SDS_P2;PMS_P1;PMS_P2;Temp;Humidity;BMP_temperature;BMP_pressure;BME280_temperature;BME280_humidity;BME280_pressure;Samples;Min_cycle;Max_cycle;Signal;HPM_P1;HPM_P2
2023/08/01 00:02:52;;;;;;;8.80;4.90;;;;;;;;;;9972679;29;20070;-87
2023/08/01 00:07:53;;;;;;;11.38;5.82;;;;;;;;;;9972941;29;20042;-86
2023/08/01 00:12:54;;;;;;;12.57;5.85;;;;;;;;;;9956437;29;20038;-87
2023/08/01 00:17:55;;;;;;;9.63;5.72;;;;;;;;;;9973395;29;20034;-86
2023/08/01 00:22:57;;;;;;;8.10;5.28;;;;;;;;;;9971453;29;20373;-88
2023/08/01 00:27:58;;;;;;;11.45;5.43;;;;;;;;;;9973394;29;20118;-86
2023/08/01 00:32:59;;;;;;;9.02;5.45;;;;;;;;;;9971734;29;20042;-86
2023/08/01 00:38:00;;;;;;;8.10;4.93;;;;;;;;;;9972839;29;20045;-86
2023/08/01 00:43:01;;;;;;;10.20;6.18;;;;;;;;;;9972789;29;20129;-86
2023/08/01 00:48:02;;;;;;;6.95;4.93;;;;;;;;;;9971813;29;20038;-87
2023/08/01 00:53:03;;;;;;;7.60;4.50;;;;;;;;;;9971808;29;20038;-87
2023/08/01 00:58:04;;;;;;;7.85;4.80;;;;;;;;;;9972302;29;20062;-85
2023/08/01 01:03:05;;;;;;;8.95;4.95;;;;;;;;;;9971121;29;20378;-86
2023/08/01 01:08:07;;;;;;;8.00;4.72;;;;;;;;;;9972135;29;20598;-86
2023/08/01 01:13:08;;;;;;;7.80;4.95;;;;;;;;;;9970747;29;20034;-88
2023/08/01 01:18:09;;;;;;;10.32;4.97;;;;;;;;;;9970421;29;20034;-86
2023/08/01 01:23:11;;;;;;;6.97;4.63;;;;;;;;;;9970569;29;20461;-86
2023/08/01 01:28:13;;;;;;;10.00;5.50;;;;;;;;;;9968918;29;20543;-85
2023/08/01 01:33:15;;;;;;;7.10;4.68;;;;;;;;;;9971471;29;20117;-86
2023/08/01 01:38:17;;;;;;;8.07;4.63;;;;;;;;;;9970889;29;20076;-87
2023/08/01 01:43:18;;;;;;;8.15;4.38;;;;;;;;;;9970967;29;20171;-86
2023/08/01 01:48:19;;;;;;;8.00;4.95;;;;;;;;;;9969419;29;20530;-85
2023/08/01 01:53:20;;;;;;;10.13;4.95;;;;;;;;;;9970197;29;20483;-86
2023/08/01 01:58:21;;;;;;;9.13;5.35;;;;;;;;;;9970215;29;20058;-87
2023/08/01 02:03:22;;;;;;;9.07;4.85;;;;;;;;;;9970802;29;20046;-86
2023/08/01 02:08:23;;;;;;;11.23;5.57;;;;;;;;;;9970943;29;20122;-86
2023/08/01 02:13:27;;;;;;;9.15;5.68;;;;;;;;;;9953214;29;20069;-86
2023/08/01 02:18:28;;;;;;;8.80;5.20;;;;;;;;;;9970071;29;20027;-86
2023/08/01 02:23:29;;;;;;;10.93;5.63;;;;;;;;;;9969806;29;20050;-88
2023/08/01 02:28:30;;;;;;;9.00;5.13;;;;;;;;;;9968833;29;20187;-86
2023/08/01 02:33:31;;;;;;;8.38;5.10;;;;;;;;;;9968362;29;20106;-86
2023/08/01 02:38:32;;;;;;;8.07;5.30;;;;;;;;;;9968282;29;20476;-85
2023/08/01 02:43:36;;;;;;;8.43;4.55;;;;;;;;;;9974095;29;20197;-86
2023/08/01 02:48:37;;;;;;;10.38;5.93;;;;;;;;;;9959871;29;20542;-86
2023/08/01 02:53:41;;;;;;;7.80;5.40;;;;;;;;;;9974213;29;20043;-86
2023/08/01 02:58:42;;;;;;;11.25;5.40;;;;;;;;;;9973548;29;20038;-83
2023/08/01 03:03:43;;;;;;;9.68;5.22;;;;;;;;;;9958667;29;20038;-84
2023/08/01 03:08:47;;;;;;;10.63;5.45;;;;;;;;;;9950572;29;20035;-85
2023/08/01 03:13:48;;;;;;;9.10;5.28;;;;;;;;;;9956248;29;20482;-85
2023/08/01 03:18:49;;;;;;;8.00;5.53;;;;;;;;;;9970134;29;20058;-88
2023/08/01 03:23:50;;;;;;;8.88;5.05;;;;;;;;;;9953885;29;20038;-86
2023/08/01 03:28:51;;;;;;;9.75;4.80;;;;;;;;;;9972108;29;20046;-87
2023/08/01 03:33:52;;;;;;;9.43;5.18;;;;;;;;;;9958358;29;20100;-85
2023/08/01 03:38:53;;;;;;;9.57;5.30;;;;;;;;;;9973819;29;20039;-85
2023/08/01 03:43:54;;;;;;;9.02;5.40;;;;;;;;;;9974023;29;20039;-84
2023/08/01 03:48:55;;;;;;;7.28;4.38;;;;;;;;;;9974145;29;20110;-86
2023/08/01 03:53:56;;;;;;;8.20;4.68;;;;;;;;;;9969250;29;20539;-86
2023/08/01 03:58:57;;;;;;;9.55;4.18;;;;;;;;;;9970503;29;20041;-87
2023/08/01 04:03:58;;;;;;;11.05;4.18;;;;;;;;;;9973203;29;20042;-83
2023/08/01 04:08:59;;;;;;;5.68;3.78;;;;;;;;;;9972678;29;20030;-84
2023/08/01 04:14:01;;;;;;;7.32;3.63;;;;;;;;;;9973604;29;20046;-85
2023/08/01 04:19:02;;;;;;;7.43;4.00;;;;;;;;;;9972035;29;20061;-84
2023/08/01 04:24:03;;;;;;;6.30;3.60;;;;;;;;;;9999638;24;20127;-82
2023/08/01 04:29:04;;;;;;;6.55;3.65;;;;;;;;;;9993095;29;20042;-86
2023/08/01 04:34:05;;;;;;;9.13;4.57;;;;;;;;;;10009150;29;20038;-85
2023/08/01 04:39:06;;;;;;;6.07;3.38;;;;;;;;;;10013681;29;20042;-85
2023/08/01 04:44:07;;;;;;;9.07;4.22;;;;;;;;;;9993414;29;20029;-86
2023/08/01 04:49:08;;;;;;;6.20;3.20;;;;;;;;;;9993504;29;20025;-85
2023/08/01 04:54:09;;;;;;;6.35;3.20;;;;;;;;;;10009521;29;20053;-86
2023/08/01 04:59:10;;;;;;;6.22;3.40;;;;;;;;;;10009499;29;20442;-85
2023/08/01 05:04:11;;;;;;;7.63;3.88;;;;;;;;;;10008744;29;20065;-86
2023/08/01 05:09:12;;;;;;;5.47;3.53;;;;;;;;;;9992863;29;20045;-85
2023/08/01 05:14:13;;;;;;;4.57;3.33;;;;;;;;;;10008979;29;20128;-85
2023/08/01 05:19:14;;;;;;;6.97;3.47;;;;;;;;;;10004042;29;20034;-85
2023/08/01 05:24:15;;;;;;;9.25;3.60;;;;;;;;;;9992249;29;20070;-85
2023/08/01 05:29:17;;;;;;;6.45;4.00;;;;;;;;;;10008978;29;20521;-85
2023/08/01 05:34:18;;;;;;;7.47;4.05;;;;;;;;;;9992380;29;20056;-86
2023/08/01 05:39:19;;;;;;;9.32;3.88;;;;;;;;;;10008837;29;20456;-86
2023/08/01 05:44:20;;;;;;;6.65;3.60;;;;;;;;;;10008766;29;20115;-85
2023/08/01 05:49:21;;;;;;;7.25;3.63;;;;;;;;;;10008630;29;20068;-85
2023/08/01 05:54:22;;;;;;;7.53;3.90;;;;;;;;;;10007855;29;20058;-87
2023/08/01 05:59:23;;;;;;;6.88;3.70;;;;;;;;;;9991853;29;20038;-86
2023/08/01 06:04:24;;;;;;;7.93;3.83;;;;;;;;;;9991595;29;20376;-85
2023/08/01 06:09:25;;;;;;;6.20;3.35;;;;;;;;;;10007553;29;20033;-86
2023/08/01 06:14:26;;;;;;;7.53;3.78;;;;;;;;;;10008357;29;20083;-86
2023/08/01 06:19:28;;;;;;;6.13;3.58;;;;;;;;;;9998282;29;20482;-85
2023/08/01 06:24:28;;;;;;;6.95;3.55;;;;;;;;;;10015270;29;20061;-87
2023/08/01 06:29:29;;;;;;;8.20;3.47;;;;;;;;;;10014533;29;20052;-86
2023/08/01 06:34:31;;;;;;;6.72;3.17;;;;;;;;;;10013222;29;20045;-85
2023/08/01 06:39:32;;;;;;;5.18;3.42;;;;;;;;;;10014502;29;20094;-84
2023/08/01 06:44:33;;;;;;;11.40;4.50;;;;;;;;;;10013777;29;20037;-86
2023/08/01 06:49:34;;;;;;;11.50;4.60;;;;;;;;;;10014781;29;20057;-85
2023/08/01 06:54:35;;;;;;;13.13;4.63;;;;;;;;;;10013731;29;20418;-85
2023/08/01 06:59:36;;;;;;;11.38;4.40;;;;;;;;;;9998784;29;20034;-86
2023/08/01 07:04:37;;;;;;;4.90;3.33;;;;;;;;;;10013992;29;20065;-87
2023/08/01 07:09:38;;;;;;;7.55;3.45;;;;;;;;;;9996752;29;20034;-86
2023/08/01 07:14:39;;;;;;;7.78;3.15;;;;;;;;;;10013359;29;20034;-87
2023/08/01 07:19:40;;;;;;;4.20;3.00;;;;;;;;;;10008314;29;20387;-85
2023/08/01 07:24:41;;;;;;;5.65;3.38;;;;;;;;;;9995683;29;20054;-85
2023/08/01 07:29:42;;;;;;;3.85;2.80;;;;;;;;;;10011318;29;20053;-86
2023/08/01 07:34:43;;;;;;;5.43;2.80;;;;;;;;;;10010801;29;20042;-85
2023/08/01 07:39:44;;;;;;;5.72;3.13;;;;;;;;;;10011343;29;20030;-87
2023/08/01 07:44:45;;;;;;;17.00;3.72;;;;;;;;;;9994542;29;20148;-86
2023/08/01 07:49:46;;;;;;;4.38;2.97;;;;;;;;;;10011114;29;20038;-85
2023/08/01 07:54:47;;;;;;;21.60;13.68;;;;;;;;;;10010910;29;20659;-86
2023/08/01 07:59:48;;;;;;;9.85;4.25;;;;;;;;;;10011572;29;20030;-83
2023/08/01 08:04:49;;;;;;;3.90;2.80;;;;;;;;;;10010737;29;20041;-85
2023/08/01 08:09:50;;;;;;;5.63;2.78;;;;;;;;;;10027391;24;20637;-85
2023/08/01 08:14:51;;;;;;;5.03;3.40;;;;;;;;;;9992980;29;20050;-85
2023/08/01 08:19:52;;;;;;;6.07;3.13;;;;;;;;;;9993304;29;20034;-85
2023/08/01 08:24:53;;;;;;;4.95;3.30;;;;;;;;;;9992899;29;20068;-85
2023/08/01 08:29:55;;;;;;;5.95;2.95;;;;;;;;;;9994121;29;20037;-85
2023/08/01 08:34:56;;;;;;;4.32;3.20;;;;;;;;;;9985155;29;20050;-84
2023/08/01 08:39:57;;;;;;;5.05;3.58;;;;;;;;;;10008569;29;20513;-85
2023/08/01 08:44:59;;;;;;;6.00;3.25;;;;;;;;;;9985513;29;20030;-86
2023/08/01 08:50:01;;;;;;;5.97;3.55;;;;;;;;;;9992768;29;20038;-85
2023/08/01 08:55:02;;;;;;;4.03;3.20;;;;;;;;;;10009541;29;20477;-86
2023/08/01 09:00:05;;;;;;;6.55;3.30;;;;;;;;;;9991769;29;20040;-85
2023/08/01 09:05:06;;;;;;;5.82;3.55;;;;;;;;;;9991859;29;20098;-85
2023/08/01 09:10:08;;;;;;;4.65;3.70;;;;;;;;;;9990757;29;20058;-84
2023/08/01 09:15:11;;;;;;;5.32;3.20;;;;;;;;;;9991853;29;20057;-84
2023/08/01 09:20:12;;;;;;;5.15;3.22;;;;;;;;;;10007982;29;20487;-86
2023/08/01 09:25:13;;;;;;;6.95;3.75;;;;;;;;;;10017925;29;20554;-85
2023/08/01 09:30:17;;;;;;;5.85;3.78;;;;;;;;;;9995061;29;20041;-86
2023/08/01 09:35:18;;;;;;;5.28;4.10;;;;;;;;;;9980847;29;20412;-88
2023/08/01 09:40:19;;;;;;;8.20;4.68;;;;;;;;;;10001764;29;20056;-86
2023/08/01 09:45:20;;;;;;;6.53;4.30;;;;;;;;;;10005266;29;20094;-88
2023/08/01 09:50:22;;;;;;;6.07;3.67;;;;;;;;;;10008824;29;20433;-86
2023/08/01 09:55:33;;;;;;;7.63;4.18;;;;;;;;;;9998421;29;20125;-86
2023/08/01 10:00:34;;;;;;;6.70;4.20;;;;;;;;;;10003639;29;20514;-86
2023/08/01 10:05:36;;;;;;;6.90;4.72;;;;;;;;;;9997970;29;20038;-88
2023/08/01 10:10:38;;;;;;;7.68;4.78;;;;;;;;;;9997178;29;20053;-86
2023/08/01 10:15:39;;;;;;;5.72;4.43;;;;;;;;;;10014984;29;20561;-86
2023/08/01 10:20:40;;;;;;;7.68;4.38;;;;;;;;;;10014398;29;20695;-86
2023/08/01 10:25:42;;;;;;;6.13;4.10;;;;;;;;;;9981897;29;20605;-86
2023/08/01 10:30:43;;;;;;;5.38;4.03;;;;;;;;;;9991261;29;20053;-87
2023/08/01 10:35:44;;;;;;;7.28;4.93;;;;;;;;;;9997008;29;20137;-86
2023/08/01 10:40:45;;;;;;;6.90;4.25;;;;;;;;;;9997587;29;20179;-85
2023/08/01 10:45:46;;;;;;;8.18;4.38;;;;;;;;;;10004463;29;20554;-88
2023/08/01 10:50:57;;;;;;;7.03;4.07;;;;;;;;;;9996762;29;20034;-87
2023/08/01 10:55:58;;;;;;;9.48;4.07;;;;;;;;;;9995200;29;20049;-86
2023/08/01 11:00:59;;;;;;;5.15;3.38;;;;;;;;;;10012380;29;20066;-87
2023/08/01 11:06:00;;;;;;;7.88;3.92;;;;;;;;;;9996163;29;20037;-86
2023/08/01 11:11:01;;;;;;;5.60;3.63;;;;;;;;;;10009004;29;20057;-86
2023/08/01 11:16:06;;;;;;;5.82;3.75;;;;;;;;;;10024936;29;20629;-85
2023/08/01 11:21:07;;;;;;;7.73;3.53;;;;;;;;;;10005653;29;20037;-83
2023/08/01 11:26:08;;;;;;;6.88;3.92;;;;;;;;;;9996939;29;20045;-84
2023/08/01 11:31:13;;;;;;;5.35;3.75;;;;;;;;;;10010463;29;20041;-85
2023/08/01 11:36:14;;;;;;;9.45;4.32;;;;;;;;;;10006604;29;20876;-86
2023/08/01 11:41:15;;;;;;;7.25;4.20;;;;;;;;;;9994456;29;20045;-84
2023/08/01 11:51:20;;;;;;;6.40;4.40;;;;;;;;;;10010213;29;20110;-82
2023/08/01 11:56:21;;;;;;;6.80;4.75;;;;;;;;;;10010998;29;20463;-84
2023/08/01 12:01:22;;;;;;;10.07;5.05;;;;;;;;;;10009523;29;20110;-84
2023/08/01 12:06:24;;;;;;;8.13;5.38;;;;;;;;;;10010511;29;20082;-85
2023/08/01 12:11:29;;;;;;;12.25;5.30;;;;;;;;;;9995917;29;20026;-85
2023/08/01 12:16:31;;;;;;;8.20;5.90;;;;;;;;;;9984641;29;20578;-84
2023/08/01 12:21:33;;;;;;;8.38;5.55;;;;;;;;;;10000533;29;20125;-85
2023/08/01 12:26:34;;;;;;;9.65;5.72;;;;;;;;;;10009064;29;20475;-84
2023/08/01 12:31:35;;;;;;;7.28;5.80;;;;;;;;;;10008335;29;20046;-86
2023/08/01 12:54:02;;;;;;;9.47;4.93;;;;;;;;;;10008913;29;20524;-85
2023/08/01 12:59:03;;;;;;;7.57;4.97;;;;;;;;;;10011299;29;20042;-84
2023/08/01 13:04:27;;;;;;;5.63;4.40;;;;;;;;;;9994273;29;20384;-85
2023/08/01 13:09:42;;;;;;;9.02;5.93;;;;;;;;;;10009446;29;20040;-86
2023/08/01 13:14:43;;;;;;;6.40;5.18;;;;;;;;;;9992360;29;20768;-86
2023/08/01 13:31:04;;;;;;;10.63;5.10;;;;;;;;;;10006606;29;20037;-84
2023/08/01 13:41:57;;;;;;;8.05;4.57;;;;;;;;;;10004735;29;20042;-83
2023/08/01 13:52:39;;;;;;;8.82;5.40;;;;;;;;;;10007792;29;20131;-85
2023/08/01 14:03:00;;;;;;;9.50;5.85;;;;;;;;;;9998229;29;20038;-84
2023/08/01 14:08:02;;;;;;;10.07;5.50;;;;;;;;;;10008028;29;20261;-83
2023/08/01 14:13:03;;;;;;;9.25;5.10;;;;;;;;;;10005754;29;21239;-84
2023/08/01 14:18:04;;;;;;;7.97;5.88;;;;;;;;;;9969181;29;20058;-84
2023/08/01 14:23:05;;;;;;;8.52;5.07;;;;;;;;;;10003492;29;20026;-87
2023/08/01 14:28:06;;;;;;;8.10;5.15;;;;;;;;;;10008176;29;20126;-84
2023/08/01 14:33:42;;;;;;;6.60;4.63;;;;;;;;;;9985079;29;20042;-83
2023/08/01 14:38:54;;;;;;;6.25;4.32;;;;;;;;;;9977186;29;20042;-86
2023/08/01 14:44:13;;;;;;;6.15;4.65;;;;;;;;;;9975499;29;20030;-85
2023/08/01 14:49:18;;;;;;;7.25;4.15;;;;;;;;;;9986476;29;20403;-86
2023/08/01 14:54:22;;;;;;;6.35;4.10;;;;;;;;;;9996062;29;20064;-87
2023/08/01 14:59:23;;;;;;;5.50;3.72;;;;;;;;;;9993458;29;20175;-84
2023/08/01 15:04:53;;;;;;;;;;;;;;;;;;;;;
2023/08/01 15:09:57;;;;;;;5.75;4.10;;;;;;;;;;10005716;29;20063;-84
2023/08/01 15:15:32;;;;;;;6.45;4.25;;;;;;;;;;9984839;29;20132;-85
2023/08/01 15:20:35;;;;;;;6.07;4.53;;;;;;;;;;9990497;29;20037;-84
2023/08/01 15:25:55;;;;;;;7.22;4.70;;;;;;;;;;9987291;29;20492;-85
2023/08/01 15:31:05;;;;;;;7.90;4.70;;;;;;;;;;9985802;29;20030;-84
2023/08/01 15:36:10;;;;;;;7.32;4.68;;;;;;;;;;9981112;29;20039;-84
2023/08/01 15:41:11;;;;;;;7.00;4.32;;;;;;;;;;10002872;29;20022;-84
2023/08/01 15:46:12;;;;;;;5.25;3.88;;;;;;;;;;10006409;29;20034;-85
2023/08/01 15:51:13;;;;;;;5.60;4.20;;;;;;;;;;9983872;29;20034;-83
2023/08/01 15:56:20;;;;;;;7.57;5.38;;;;;;;;;;9991026;29;20046;-87
2023/08/01 16:01:46;;;;;;;5.55;4.13;;;;;;;;;;9993597;29;20030;-83
2023/08/01 16:06:47;;;;;;;5.88;4.13;;;;;;;;;;9979983;29;20099;-85
2023/08/01 16:12:00;;;;;;;6.45;3.85;;;;;;;;;;9999919;29;20435;-85
2023/08/01 16:17:20;;;;;;;8.07;3.50;;;;;;;;;;9993258;29;20117;-84
2023/08/01 16:22:23;;;;;;;5.72;3.47;;;;;;;;;;9995724;29;20030;-84
2023/08/01 16:27:24;;;;;;;7.15;3.65;;;;;;;;;;9993637;29;20522;-84
2023/08/01 16:32:39;;;;;;;6.38;3.75;;;;;;;;;;10003739;29;20150;-85
2023/08/01 16:38:05;;;;;;;6.82;4.40;;;;;;;;;;9987439;29;20042;-85
2023/08/01 16:49:25;;;;;;;7.57;4.07;;;;;;;;;;9990455;29;20042;-85
2023/08/01 16:54:26;;;;;;;8.13;4.45;;;;;;;;;;9982764;29;20042;-84
2023/08/01 16:59:27;;;;;;;5.95;4.30;;;;;;;;;;9990401;29;20046;-85
2023/08/01 17:04:53;;;;;;;6.90;4.07;;;;;;;;;;9990212;29;20038;-87
2023/08/01 17:09:55;;;;;;;6.75;4.30;;;;;;;;;;9982976;29;20372;-85
2023/08/01 17:14:56;;;;;;;8.15;4.43;;;;;;;;;;9986932;29;20432;-85
2023/08/01 17:20:23;;;;;;;7.00;4.57;;;;;;;;;;9986115;29;20038;-85
2023/08/01 17:25:25;;;;;;;6.53;4.30;;;;;;;;;;9977981;29;21037;-84
2023/08/01 17:36:07;;;;;;;6.75;4.53;;;;;;;;;;9992244;29;20053;-86
2023/08/01 17:41:21;;;;;;;7.82;5.35;;;;;;;;;;9977795;29;20040;-87
2023/08/01 17:46:23;;;;;;;9.85;5.72;;;;;;;;;;9981028;29;20040;-85
2023/08/01 17:51:24;;;;;;;11.02;6.05;;;;;;;;;;9958470;29;20039;-85
2023/08/01 17:56:26;;;;;;;9.60;5.55;;;;;;;;;;9983966;29;20648;-87
2023/08/01 18:01:28;;;;;;;10.90;5.75;;;;;;;;;;9971245;29;20067;-85
2023/08/01 18:06:29;;;;;;;8.32;4.85;;;;;;;;;;9972165;29;20087;-84
2023/08/01 18:11:30;;;;;;;7.32;4.70;;;;;;;;;;9983377;29;20093;-85
2023/08/01 18:16:31;;;;;;;6.38;4.35;;;;;;;;;;9997610;29;20376;-85
2023/08/01 18:21:32;;;;;;;7.60;5.03;;;;;;;;;;9990598;29;20042;-86
2023/08/01 18:26:38;;;;;;;7.05;4.40;;;;;;;;;;10010050;29;20090;-85
2023/08/01 18:31:39;;;;;;;7.03;4.22;;;;;;;;;;9997498;29;20034;-84
2023/08/01 18:36:40;;;;;;;5.65;4.20;;;;;;;;;;9985594;29;20567;-85
2023/08/01 18:41:41;;;;;;;7.68;4.68;;;;;;;;;;9995493;29;20551;-86
2023/08/01 18:46:42;;;;;;;8.05;4.55;;;;;;;;;;9990292;29;20087;-85
2023/08/01 18:51:43;;;;;;;7.35;4.28;;;;;;;;;;9995028;29;20430;-86
2023/08/01 18:56:44;;;;;;;5.65;4.60;;;;;;;;;;9976441;29;20491;-86
2023/08/01 19:01:47;;;;;;;5.78;4.25;;;;;;;;;;9991008;29;20057;-86
2023/08/01 19:06:48;;;;;;;7.05;4.72;;;;;;;;;;9988086;29;20054;-84
2023/08/01 19:11:49;;;;;;;6.72;3.85;;;;;;;;;;9997779;29;20660;-84
2023/08/01 19:16:50;;;;;;;7.43;4.30;;;;;;;;;;9999441;29;20101;-88
2023/08/01 19:21:51;;;;;;;8.23;4.95;;;;;;;;;;9988828;29;20033;-84
2023/08/01 19:26:52;;;;;;;6.80;4.28;;;;;;;;;;9991951;29;20060;-85
2023/08/01 19:31:53;;;;;;;7.10;4.53;;;;;;;;;;9995489;29;20023;-85
2023/08/01 19:36:57;;;;;;;9.00;5.10;;;;;;;;;;9998397;29;20037;-85
2023/08/01 19:41:58;;;;;;;8.80;4.90;;;;;;;;;;9985204;29;20045;-83
2023/08/01 19:46:59;;;;;;;10.10;5.47;;;;;;;;;;9987206;29;20032;-82
2023/08/01 19:52:02;;;;;;;9.88;5.13;;;;;;;;;;10003243;29;20037;-83
2023/08/01 19:57:03;;;;;;;9.07;5.50;;;;;;;;;;9985217;29;20041;-85
2023/08/01 20:02:04;;;;;;;9.43;5.53;;;;;;;;;;9998332;29;20479;-84
2023/08/01 20:07:05;;;;;;;10.65;5.80;;;;;;;;;;10004594;29;20048;-84
2023/08/01 20:12:06;;;;;;;8.68;5.10;;;;;;;;;;10004658;29;20487;-84
2023/08/01 20:17:08;;;;;;;8.88;5.30;;;;;;;;;;9999102;29;20038;-84
2023/08/01 20:22:09;;;;;;;11.30;6.03;;;;;;;;;;10002223;29;20045;-85
2023/08/01 20:27:10;;;;;;;15.27;5.40;;;;;;;;;;9995759;29;20523;-84
2023/08/01 20:32:11;;;;;;;9.52;5.18;;;;;;;;;;10003915;29;20026;-85
2023/08/01 20:37:12;;;;;;;11.73;5.60;;;;;;;;;;9996723;29;20030;-84
2023/08/01 20:42:13;;;;;;;10.32;5.30;;;;;;;;;;9957886;29;20481;-84
2023/08/01 20:47:14;;;;;;;9.50;5.53;;;;;;;;;;9984119;29;20038;-82
2023/08/01 20:52:15;;;;;;;9.50;5.20;;;;;;;;;;9988767;29;20094;-84
2023/08/01 20:57:16;;;;;;;6.43;5.00;;;;;;;;;;9995851;29;20038;-84
2023/08/01 21:02:17;;;;;;;7.50;5.07;;;;;;;;;;9974574;29;20042;-84
2023/08/01 21:07:19;;;;;;;9.65;4.97;;;;;;;;;;9979602;29;20035;-84
2023/08/01 21:12:22;;;;;;;7.75;4.50;;;;;;;;;;9976061;29;20560;-84
2023/08/01 21:17:23;;;;;;;7.88;4.88;;;;;;;;;;9994922;29;20034;-83
2023/08/01 21:22:24;;;;;;;7.95;4.25;;;;;;;;;;9973324;29;20038;-84
2023/08/01 21:27:25;;;;;;;7.30;4.10;;;;;;;;;;10001418;29;20050;-83
2023/08/01 21:32:26;;;;;;;5.82;3.95;;;;;;;;;;9990078;29;20048;-85
2023/08/01 21:37:27;;;;;;;6.18;4.35;;;;;;;;;;9966493;29;20046;-82
2023/08/01 21:42:28;;;;;;;7.82;4.10;;;;;;;;;;9989247;29;20042;-85
2023/08/01 21:47:29;;;;;;;6.90;4.07;;;;;;;;;;9987773;29;20341;-85
2023/08/01 21:52:30;;;;;;;7.47;4.85;;;;;;;;;;9972039;29;20054;-85
2023/08/01 21:57:31;;;;;;;7.93;4.38;;;;;;;;;;9983277;29;20118;-85
2023/08/01 22:02:32;;;;;;;5.32;4.18;;;;;;;;;;9995473;29;20121;-84
2023/08/01 22:07:33;;;;;;;6.38;4.20;;;;;;;;;;9989843;29;20061;-84
2023/08/01 22:12:34;;;;;;;11.05;4.72;;;;;;;;;;9999273;29;20110;-85
2023/08/01 22:17:39;;;;;;;7.00;4.63;;;;;;;;;;9995805;29;20045;-84
2023/08/01 22:22:40;;;;;;;8.48;4.88;;;;;;;;;;9968960;29;20368;-85
2023/08/01 22:27:41;;;;;;;8.23;4.60;;;;;;;;;;10001704;29;20104;-84
2023/08/01 22:32:42;;;;;;;7.38;4.70;;;;;;;;;;9996366;29;20129;-84
2023/08/01 22:37:43;;;;;;;12.45;6.32;;;;;;;;;;9991667;29;20406;-83
2023/08/01 22:42:44;;;;;;;13.13;5.82;;;;;;;;;;10001587;29;20030;-86
2023/08/01 22:47:45;;;;;;;13.65;8.35;;;;;;;;;;9992791;29;20041;-83
2023/08/01 22:52:48;;;;;;;10.30;7.28;;;;;;;;;;9999209;29;20046;-83
2023/08/01 22:57:49;;;;;;;12.07;7.85;;;;;;;;;;9969581;29;20038;-85
2023/08/01 23:02:51;;;;;;;16.92;9.40;;;;;;;;;;10013830;29;20034;-84
2023/08/01 23:07:52;;;;;;;21.10;11.65;;;;;;;;;;9987869;29;20049;-83
2023/08/01 23:12:53;;;;;;;17.17;11.40;;;;;;;;;;9994464;29;20038;-86
2023/08/01 23:17:54;;;;;;;19.13;9.90;;;;;;;;;;9983484;29;20034;-85
2023/08/01 23:22:55;;;;;;;14.00;8.45;;;;;;;;;;9981469;29;20270;-84
2023/08/01 23:27:57;;;;;;;14.43;8.32;;;;;;;;;;10001037;29;20054;-85
2023/08/01 23:32:58;;;;;;;11.32;7.38;;;;;;;;;;10001152;29;20069;-84
2023/08/01 23:37:59;;;;;;;12.30;7.60;;;;;;;;;;10000572;29;20045;-83
2023/08/01 23:43:00;;;;;;;15.70;10.02;;;;;;;;;;9993580;29;20098;-83
2023/08/01 23:48:02;;;;;;;16.05;10.73;;;;;;;;;;9986872;29;20089;-83
2023/08/01 23:53:03;;;;;;;19.00;11.93;;;;;;;;;;9979157;29;20134;-85
2023/08/01 23:58:04;;;;;;;22.67;13.35;;;;;;;;;;10007719;29;20038;-85
